sensor_id;sensor_type;location;lat;lon;timestamp;P1;durP1;ratioP1;P2;durP2;ratioP2
48578;SDS011;34357;51.948;6.132;2023-02-28T00:00:33;13.97;;;7.73;;
48578;SDS011;34357;51.948;6.132;2023-02-28T00:03:01;14.53;;;8.17;;
48578;SDS011;34357;51.948;6.132;2023-02-28T00:05:27;16.17;;;8.20;;
48578;SDS011;34357;51.948;6.132;2023-02-28T00:07:53;12.67;;;7.80;;
48578;SDS011;34357;51.948;6.132;2023-02-28T00:10:24;11.50;;;8.80;;
48578;SDS011;34357;51.948;6.132;2023-02-28T00:12:52;13.00;;;9.67;;
48578;SDS011;34357;51.948;6.132;2023-02-28T00:15:19;15.27;;;10.10;;
48578;SDS011;34357;51.948;6.132;2023-02-28T00:17:45;14.90;;;11.43;;
48578;SDS011;34357;51.948;6.132;2023-02-28T00:20:11;18.50;;;11.77;;
48578;SDS011;34357;51.948;6.132;2023-02-28T00:22:39;16.53;;;12.50;;
48578;SDS011;34357;51.948;6.132;2023-02-28T00:25:10;15.73;;;11.20;;
48578;SDS011;34357;51.948;6.132;2023-02-28T00:27:37;18.27;;;11.97;;
48578;SDS011;34357;51.948;6.132;2023-02-28T00:30:04;15.30;;;9.90;;
48578;SDS011;34357;51.948;6.132;2023-02-28T00:32:31;14.33;;;8.57;;
48578;SDS011;34357;51.948;6.132;2023-02-28T00:34:57;11.03;;;8.10;;
48578;SDS011;34357;51.948;6.132;2023-02-28T00:37:23;16.80;;;9.53;;
48578;SDS011;34357;51.948;6.132;2023-02-28T00:39:49;13.75;;;9.00;;
48578;SDS011;34357;51.948;6.132;2023-02-28T00:42:14;11.43;;;8.43;;
48578;SDS011;34357;51.948;6.132;2023-02-28T00:44:40;11.73;;;8.70;;
48578;SDS011;34357;51.948;6.132;2023-02-28T00:47:06;11.47;;;8.40;;
48578;SDS011;34357;51.948;6.132;2023-02-28T00:49:32;10.37;;;8.00;;
48578;SDS011;34357;51.948;6.132;2023-02-28T00:51:58;9.90;;;7.50;;
48578;SDS011;34357;51.948;6.132;2023-02-28T00:54:25;12.67;;;7.13;;
48578;SDS011;34357;51.948;6.132;2023-02-28T00:56:51;12.52;;;6.47;;
48578;SDS011;34357;51.948;6.132;2023-02-28T00:59:17;10.80;;;7.33;;
48578;SDS011;34357;51.948;6.132;2023-02-28T01:01:44;11.37;;;7.60;;
48578;SDS011;34357;51.948;6.132;2023-02-28T01:04:10;10.70;;;8.00;;
48578;SDS011;34357;51.948;6.132;2023-02-28T01:06:37;12.50;;;8.57;;
48578;SDS011;34357;51.948;6.132;2023-02-28T01:09:03;11.10;;;7.73;;
48578;SDS011;34357;51.948;6.132;2023-02-28T01:11:30;10.18;;;7.47;;
48578;SDS011;34357;51.948;6.132;2023-02-28T01:13:56;12.87;;;8.30;;
48578;SDS011;34357;51.948;6.132;2023-02-28T01:16:22;13.50;;;8.30;;
48578;SDS011;34357;51.948;6.132;2023-02-28T01:18:48;15.40;;;7.10;;
48578;SDS011;34357;51.948;6.132;2023-02-28T01:21:16;10.07;;;6.25;;
48578;SDS011;34357;51.948;6.132;2023-02-28T01:23:43;17.33;;;7.00;;
48578;SDS011;34357;51.948;6.132;2023-02-28T01:26:14;12.33;;;6.70;;
48578;SDS011;34357;51.948;6.132;2023-02-28T01:28:41;10.02;;;6.82;;
48578;SDS011;34357;51.948;6.132;2023-02-28T01:31:07;10.43;;;6.77;;
48578;SDS011;34357;51.948;6.132;2023-02-28T01:33:36;9.68;;;6.32;;
48578;SDS011;34357;51.948;6.132;2023-02-28T01:36:06;10.50;;;6.80;;
48578;SDS011;34357;51.948;6.132;2023-02-28T01:38:37;12.05;;;6.32;;
48578;SDS011;34357;51.948;6.132;2023-02-28T01:41:03;11.30;;;7.10;;
48578;SDS011;34357;51.948;6.132;2023-02-28T01:43:32;7.65;;;5.95;;
48578;SDS011;34357;51.948;6.132;2023-02-28T01:46:18;10.43;;;6.78;;
48578;SDS011;34357;51.948;6.132;2023-02-28T01:48:57;12.47;;;6.83;;
48578;SDS011;34357;51.948;6.132;2023-02-28T01:54:11;10.85;;;6.57;;
48578;SDS011;34357;51.948;6.132;2023-02-28T01:56:41;11.73;;;6.57;;
48578;SDS011;34357;51.948;6.132;2023-02-28T01:59:12;11.32;;;6.57;;
48578;SDS011;34357;51.948;6.132;2023-02-28T02:01:43;13.23;;;7.32;;
48578;SDS011;34357;51.948;6.132;2023-02-28T02:04:09;12.63;;;6.68;;
48578;SDS011;34357;51.948;6.132;2023-02-28T02:06:38;10.17;;;6.63;;
48578;SDS011;34357;51.948;6.132;2023-02-28T02:09:09;12.63;;;7.33;;
48578;SDS011;34357;51.948;6.132;2023-02-28T02:11:36;9.73;;;6.70;;
48578;SDS011;34357;51.948;6.132;2023-02-28T02:17:07;10.32;;;6.70;;
48578;SDS011;34357;51.948;6.132;2023-02-28T02:25:40;10.48;;;6.88;;
48578;SDS011;34357;51.948;6.132;2023-02-28T02:28:20;9.83;;;6.77;;
48578;SDS011;34357;51.948;6.132;2023-02-28T02:34:26;13.40;;;6.77;;
48578;SDS011;34357;51.948;6.132;2023-02-28T02:39:31;10.35;;;6.70;;
48578;SDS011;34357;51.948;6.132;2023-02-28T02:42:20;9.43;;;6.57;;
48578;SDS011;34357;51.948;6.132;2023-02-28T02:44:58;10.50;;;7.13;;
48578;SDS011;34357;51.948;6.132;2023-02-28T02:47:37;15.23;;;7.07;;
48578;SDS011;34357;51.948;6.132;2023-02-28T02:50:05;10.27;;;7.33;;
48578;SDS011;34357;51.948;6.132;2023-02-28T02:52:38;10.30;;;6.77;;
48578;SDS011;34357;51.948;6.132;2023-02-28T02:55:07;10.47;;;7.57;;
48578;SDS011;34357;51.948;6.132;2023-02-28T02:57:47;13.33;;;7.50;;
48578;SDS011;34357;51.948;6.132;2023-02-28T03:00:23;17.08;;;7.63;;
48578;SDS011;34357;51.948;6.132;2023-02-28T03:02:55;11.55;;;8.13;;
48578;SDS011;34357;51.948;6.132;2023-02-28T03:06:04;11.27;;;6.75;;
48578;SDS011;34357;51.948;6.132;2023-02-28T03:08:11;12.50;;;7.70;;
48578;SDS011;34357;51.948;6.132;2023-02-28T03:10:38;10.85;;;7.53;;
48578;SDS011;34357;51.948;6.132;2023-02-28T03:27:28;11.80;;;7.33;;
48578;SDS011;34357;51.948;6.132;2023-02-28T03:32:52;14.47;;;7.70;;
48578;SDS011;34357;51.948;6.132;2023-02-28T03:35:22;11.20;;;7.70;;
48578;SDS011;34357;51.948;6.132;2023-02-28T03:37:56;15.02;;;7.78;;
48578;SDS011;34357;51.948;6.132;2023-02-28T03:40:31;15.70;;;7.87;;
48578;SDS011;34357;51.948;6.132;2023-02-28T03:43:02;14.67;;;8.03;;
48578;SDS011;34357;51.948;6.132;2023-02-28T03:45:33;16.37;;;7.80;;
48578;SDS011;34357;51.948;6.132;2023-02-28T03:48:11;9.95;;;7.47;;
48578;SDS011;34357;51.948;6.132;2023-02-28T03:50:55;11.03;;;7.70;;
48578;SDS011;34357;51.948;6.132;2023-02-28T03:59:18;11.87;;;7.47;;
48578;SDS011;34357;51.948;6.132;2023-02-28T04:01:53;14.43;;;7.35;;
48578;SDS011;34357;51.948;6.132;2023-02-28T04:04:20;12.90;;;7.03;;
48578;SDS011;34357;51.948;6.132;2023-02-28T04:06:48;11.00;;;6.97;;
48578;SDS011;34357;51.948;6.132;2023-02-28T04:09:15;13.20;;;7.18;;
48578;SDS011;34357;51.948;6.132;2023-02-28T04:11:45;12.10;;;7.05;;
48578;SDS011;34357;51.948;6.132;2023-02-28T04:14:17;11.03;;;7.20;;
48578;SDS011;34357;51.948;6.132;2023-02-28T04:16:43;11.18;;;6.90;;
48578;SDS011;34357;51.948;6.132;2023-02-28T04:19:10;12.18;;;6.50;;
48578;SDS011;34357;51.948;6.132;2023-02-28T04:21:38;11.23;;;6.17;;
48578;SDS011;34357;51.948;6.132;2023-02-28T04:24:08;12.18;;;6.60;;
48578;SDS011;34357;51.948;6.132;2023-02-28T04:26:39;10.75;;;6.68;;
48578;SDS011;34357;51.948;6.132;2023-02-28T04:29:06;7.65;;;6.18;;
48578;SDS011;34357;51.948;6.132;2023-02-28T04:31:32;9.45;;;6.93;;
48578;SDS011;34357;51.948;6.132;2023-02-28T04:33:59;10.18;;;6.68;;
48578;SDS011;34357;51.948;6.132;2023-02-28T04:36:25;12.40;;;7.45;;
48578;SDS011;34357;51.948;6.132;2023-02-28T04:38:51;14.57;;;7.30;;
48578;SDS011;34357;51.948;6.132;2023-02-28T04:41:18;10.02;;;6.80;;
48578;SDS011;34357;51.948;6.132;2023-02-28T04:43:44;11.52;;;7.38;;
48578;SDS011;34357;51.948;6.132;2023-02-28T04:46:10;10.50;;;7.38;;
48578;SDS011;34357;51.948;6.132;2023-02-28T04:48:37;12.02;;;7.28;;
48578;SDS011;34357;51.948;6.132;2023-02-28T04:51:06;12.30;;;7.28;;
48578;SDS011;34357;51.948;6.132;2023-02-28T04:53:34;10.90;;;7.45;;
48578;SDS011;34357;51.948;6.132;2023-02-28T04:56:04;10.60;;;6.57;;
48578;SDS011;34357;51.948;6.132;2023-02-28T04:58:31;10.00;;;7.30;;
48578;SDS011;34357;51.948;6.132;2023-02-28T05:01:01;11.38;;;6.80;;
48578;SDS011;34357;51.948;6.132;2023-02-28T05:03:29;11.02;;;6.50;;
48578;SDS011;34357;51.948;6.132;2023-02-28T05:05:55;12.02;;;7.50;;
48578;SDS011;34357;51.948;6.132;2023-02-28T05:08:21;9.77;;;6.60;;
48578;SDS011;34357;51.948;6.132;2023-02-28T05:10:46;11.93;;;7.03;;
48578;SDS011;34357;51.948;6.132;2023-02-28T05:13:12;9.05;;;5.95;;
48578;SDS011;34357;51.948;6.132;2023-02-28T05:15:38;8.50;;;6.15;;
48578;SDS011;34357;51.948;6.132;2023-02-28T05:18:04;10.23;;;7.13;;
48578;SDS011;34357;51.948;6.132;2023-02-28T05:20:29;13.35;;;6.20;;
48578;SDS011;34357;51.948;6.132;2023-02-28T05:22:56;10.43;;;6.82;;
48578;SDS011;34357;51.948;6.132;2023-02-28T05:25:23;8.73;;;6.07;;
48578;SDS011;34357;51.948;6.132;2023-02-28T05:27:49;11.45;;;6.35;;
48578;SDS011;34357;51.948;6.132;2023-02-28T05:30:15;11.18;;;6.28;;
48578;SDS011;34357;51.948;6.132;2023-02-28T05:32:41;12.02;;;6.43;;
48578;SDS011;34357;51.948;6.132;2023-02-28T05:35:08;9.38;;;6.30;;
48578;SDS011;34357;51.948;6.132;2023-02-28T05:37:35;10.60;;;5.97;;
48578;SDS011;34357;51.948;6.132;2023-02-28T05:40:01;8.05;;;5.70;;
48578;SDS011;34357;51.948;6.132;2023-02-28T05:42:31;9.82;;;6.10;;
48578;SDS011;34357;51.948;6.132;2023-02-28T05:44:57;11.30;;;5.88;;
48578;SDS011;34357;51.948;6.132;2023-02-28T05:47:24;10.52;;;5.55;;
48578;SDS011;34357;51.948;6.132;2023-02-28T05:49:50;12.23;;;5.80;;
48578;SDS011;34357;51.948;6.132;2023-02-28T05:52:15;9.30;;;5.32;;
48578;SDS011;34357;51.948;6.132;2023-02-28T05:54:41;7.55;;;5.40;;
48578;SDS011;34357;51.948;6.132;2023-02-28T05:57:07;10.38;;;5.47;;
48578;SDS011;34357;51.948;6.132;2023-02-28T05:59:33;9.23;;;5.68;;
48578;SDS011;34357;51.948;6.132;2023-02-28T06:01:58;9.82;;;5.18;;
48578;SDS011;34357;51.948;6.132;2023-02-28T06:04:24;8.73;;;5.70;;
48578;SDS011;34357;51.948;6.132;2023-02-28T06:06:50;8.25;;;5.15;;
48578;SDS011;34357;51.948;6.132;2023-02-28T06:09:16;8.35;;;5.85;;
48578;SDS011;34357;51.948;6.132;2023-02-28T06:11:42;8.65;;;6.10;;
48578;SDS011;34357;51.948;6.132;2023-02-28T06:14:14;12.23;;;5.57;;
48578;SDS011;34357;51.948;6.132;2023-02-28T06:16:42;11.35;;;6.05;;
48578;SDS011;34357;51.948;6.132;2023-02-28T06:19:08;11.15;;;6.38;;
48578;SDS011;34357;51.948;6.132;2023-02-28T06:21:34;9.57;;;6.93;;
48578;SDS011;34357;51.948;6.132;2023-02-28T06:24:00;13.53;;;6.63;;
48578;SDS011;34357;51.948;6.132;2023-02-28T06:26:26;9.90;;;6.15;;
48578;SDS011;34357;51.948;6.132;2023-02-28T06:28:52;10.95;;;6.68;;
48578;SDS011;34357;51.948;6.132;2023-02-28T06:31:18;13.18;;;7.00;;
48578;SDS011;34357;51.948;6.132;2023-02-28T06:33:44;12.00;;;6.50;;
48578;SDS011;34357;51.948;6.132;2023-02-28T06:36:11;13.63;;;7.03;;
48578;SDS011;34357;51.948;6.132;2023-02-28T06:38:38;10.40;;;6.85;;
48578;SDS011;34357;51.948;6.132;2023-02-28T06:41:04;13.98;;;7.30;;
48578;SDS011;34357;51.948;6.132;2023-02-28T06:43:32;9.82;;;6.50;;
48578;SDS011;34357;51.948;6.132;2023-02-28T06:46:04;13.40;;;8.05;;
48578;SDS011;34357;51.948;6.132;2023-02-28T06:48:31;14.52;;;8.73;;
48578;SDS011;34357;51.948;6.132;2023-02-28T06:51:01;15.00;;;8.50;;
48578;SDS011;34357;51.948;6.132;2023-02-28T06:53:30;15.35;;;9.13;;
48578;SDS011;34357;51.948;6.132;2023-02-28T06:55:56;26.60;;;12.10;;
48578;SDS011;34357;51.948;6.132;2023-02-28T06:58:21;20.15;;;11.05;;
48578;SDS011;34357;51.948;6.132;2023-02-28T07:00:50;15.18;;;8.52;;
48578;SDS011;34357;51.948;6.132;2023-02-28T07:03:16;13.35;;;7.78;;
48578;SDS011;34357;51.948;6.132;2023-02-28T07:05:43;12.68;;;7.47;;
48578;SDS011;34357;51.948;6.132;2023-02-28T07:08:09;10.80;;;6.65;;
48578;SDS011;34357;51.948;6.132;2023-02-28T07:10:38;11.93;;;6.35;;
48578;SDS011;34357;51.948;6.132;2023-02-28T07:13:05;9.43;;;5.63;;
48578;SDS011;34357;51.948;6.132;2023-02-28T07:15:31;9.07;;;6.20;;
48578;SDS011;34357;51.948;6.132;2023-02-28T07:17:57;12.18;;;6.78;;
48578;SDS011;34357;51.948;6.132;2023-02-28T07:20:23;8.43;;;6.20;;
48578;SDS011;34357;51.948;6.132;2023-02-28T07:22:50;16.38;;;8.43;;
48578;SDS011;34357;51.948;6.132;2023-02-28T07:25:22;25.90;;;10.80;;
48578;SDS011;34357;51.948;6.132;2023-02-28T07:27:49;21.52;;;10.15;;
48578;SDS011;34357;51.948;6.132;2023-02-28T07:30:15;14.75;;;7.97;;
48578;SDS011;34357;51.948;6.132;2023-02-28T07:32:41;13.20;;;6.10;;
48578;SDS011;34357;51.948;6.132;2023-02-28T07:35:07;10.48;;;5.07;;
48578;SDS011;34357;51.948;6.132;2023-02-28T07:37:33;9.77;;;4.60;;
48578;SDS011;34357;51.948;6.132;2023-02-28T07:40:02;6.05;;;4.45;;
48578;SDS011;34357;51.948;6.132;2023-02-28T07:42:31;7.53;;;4.78;;
48578;SDS011;34357;51.948;6.132;2023-02-28T07:44:57;9.85;;;4.03;;
48578;SDS011;34357;51.948;6.132;2023-02-28T07:47:24;6.25;;;4.00;;
48578;SDS011;34357;51.948;6.132;2023-02-28T07:49:50;5.88;;;3.15;;
48578;SDS011;34357;51.948;6.132;2023-02-28T07:52:15;5.38;;;3.53;;
48578;SDS011;34357;51.948;6.132;2023-02-28T07:54:41;5.32;;;3.05;;
48578;SDS011;34357;51.948;6.132;2023-02-28T07:57:07;6.35;;;3.10;;
48578;SDS011;34357;51.948;6.132;2023-02-28T07:59:33;6.72;;;3.45;;
48578;SDS011;34357;51.948;6.132;2023-02-28T08:01:58;5.35;;;3.10;;
48578;SDS011;34357;51.948;6.132;2023-02-28T08:04:24;5.53;;;2.92;;
48578;SDS011;34357;51.948;6.132;2023-02-28T08:06:50;5.47;;;2.67;;
48578;SDS011;34357;51.948;6.132;2023-02-28T08:09:18;4.50;;;2.80;;
48578;SDS011;34357;51.948;6.132;2023-02-28T08:11:44;8.00;;;2.88;;
48578;SDS011;34357;51.948;6.132;2023-02-28T08:14:10;4.15;;;2.30;;
48578;SDS011;34357;51.948;6.132;2023-02-28T08:16:36;4.72;;;2.10;;
48578;SDS011;34357;51.948;6.132;2023-02-28T08:19:02;6.70;;;2.42;;
48578;SDS011;34357;51.948;6.132;2023-02-28T08:21:27;6.35;;;2.15;;
48578;SDS011;34357;51.948;6.132;2023-02-28T08:23:53;4.45;;;2.30;;
48578;SDS011;34357;51.948;6.132;2023-02-28T08:26:19;4.47;;;2.40;;
48578;SDS011;34357;51.948;6.132;2023-02-28T08:28:45;6.38;;;1.98;;
48578;SDS011;34357;51.948;6.132;2023-02-28T08:31:12;4.25;;;1.92;;
48578;SDS011;34357;51.948;6.132;2023-02-28T08:33:39;5.20;;;1.98;;
48578;SDS011;34357;51.948;6.132;2023-02-28T08:36:07;3.58;;;1.90;;
48578;SDS011;34357;51.948;6.132;2023-02-28T08:38:34;7.22;;;1.92;;
48578;SDS011;34357;51.948;6.132;2023-02-28T08:41:01;2.92;;;1.77;;
48578;SDS011;34357;51.948;6.132;2023-02-28T08:43:28;6.30;;;1.90;;
48578;SDS011;34357;51.948;6.132;2023-02-28T08:45:57;2.65;;;1.65;;
48578;SDS011;34357;51.948;6.132;2023-02-28T08:48:23;2.45;;;1.65;;
48578;SDS011;34357;51.948;6.132;2023-02-28T08:51:00;2.35;;;1.85;;
48578;SDS011;34357;51.948;6.132;2023-02-28T08:53:29;3.20;;;1.90;;
48578;SDS011;34357;51.948;6.132;2023-02-28T08:58:25;5.50;;;1.70;;
48578;SDS011;34357;51.948;6.132;2023-02-28T09:00:51;3.97;;;2.17;;
48578;SDS011;34357;51.948;6.132;2023-02-28T09:03:17;3.50;;;1.83;;
48578;SDS011;34357;51.948;6.132;2023-02-28T09:05:52;5.15;;;2.00;;
48578;SDS011;34357;51.948;6.132;2023-02-28T09:08:22;3.25;;;1.80;;
48578;SDS011;34357;51.948;6.132;2023-02-28T09:10:49;2.53;;;1.65;;
48578;SDS011;34357;51.948;6.132;2023-02-28T09:13:16;3.75;;;1.55;;
48578;SDS011;34357;51.948;6.132;2023-02-28T09:15:42;2.47;;;1.40;;
48578;SDS011;34357;51.948;6.132;2023-02-28T09:18:08;2.00;;;1.20;;
48578;SDS011;34357;51.948;6.132;2023-02-28T09:20:37;3.22;;;1.33;;
48578;SDS011;34357;51.948;6.132;2023-02-28T09:23:04;1.33;;;1.00;;
48578;SDS011;34357;51.948;6.132;2023-02-28T09:25:30;2.67;;;1.20;;
48578;SDS011;34357;51.948;6.132;2023-02-28T09:27:56;1.02;;;0.80;;
48578;SDS011;34357;51.948;6.132;2023-02-28T09:30:22;2.90;;;1.20;;
48578;SDS011;34357;51.948;6.132;2023-02-28T09:32:48;1.80;;;1.10;;
48578;SDS011;34357;51.948;6.132;2023-02-28T09:35:17;1.75;;;0.90;;
48578;SDS011;34357;51.948;6.132;2023-02-28T09:37:44;1.98;;;0.98;;
48578;SDS011;34357;51.948;6.132;2023-02-28T09:40:10;1.90;;;1.13;;
48578;SDS011;34357;51.948;6.132;2023-02-28T09:42:37;2.03;;;1.08;;
48578;SDS011;34357;51.948;6.132;2023-02-28T09:45:13;1.90;;;1.05;;
48578;SDS011;34357;51.948;6.132;2023-02-28T09:47:47;1.88;;;1.20;;
48578;SDS011;34357;51.948;6.132;2023-02-28T09:52:59;1.98;;;1.10;;
48578;SDS011;34357;51.948;6.132;2023-02-28T09:55:39;2.00;;;1.20;;
48578;SDS011;34357;51.948;6.132;2023-02-28T10:00:43;1.50;;;1.10;;
48578;SDS011;34357;51.948;6.132;2023-02-28T10:08:15;2.53;;;1.20;;
48578;SDS011;34357;51.948;6.132;2023-02-28T10:10:47;2.97;;;1.55;;
48578;SDS011;34357;51.948;6.132;2023-02-28T10:16:11;3.60;;;1.15;;
48578;SDS011;34357;51.948;6.132;2023-02-28T10:21:33;1.48;;;1.13;;
48578;SDS011;34357;51.948;6.132;2023-02-28T10:24:03;2.28;;;1.00;;
48578;SDS011;34357;51.948;6.132;2023-02-28T10:26:41;1.40;;;1.08;;
48578;SDS011;34357;51.948;6.132;2023-02-28T10:29:10;1.42;;;1.20;;
48578;SDS011;34357;51.948;6.132;2023-02-28T10:31:36;1.65;;;1.10;;
48578;SDS011;34357;51.948;6.132;2023-02-28T10:34:03;2.78;;;1.30;;
48578;SDS011;34357;51.948;6.132;2023-02-28T10:36:31;1.63;;;1.20;;
48578;SDS011;34357;51.948;6.132;2023-02-28T10:38:57;1.80;;;1.17;;
48578;SDS011;34357;51.948;6.132;2023-02-28T10:41:31;3.05;;;1.10;;
48578;SDS011;34357;51.948;6.132;2023-02-28T10:44:20;3.42;;;1.30;;
48578;SDS011;34357;51.948;6.132;2023-02-28T10:46:47;1.60;;;1.15;;
48578;SDS011;34357;51.948;6.132;2023-02-28T10:49:24;1.58;;;1.13;;
48578;SDS011;34357;51.948;6.132;2023-02-28T10:51:57;1.67;;;1.20;;
48578;SDS011;34357;51.948;6.132;2023-02-28T10:54:32;2.55;;;1.30;;
48578;SDS011;34357;51.948;6.132;2023-02-28T10:57:15;3.58;;;1.10;;
48578;SDS011;34357;51.948;6.132;2023-02-28T10:59:42;2.22;;;1.40;;
48578;SDS011;34357;51.948;6.132;2023-02-28T11:04:55;2.72;;;1.33;;
48578;SDS011;34357;51.948;6.132;2023-02-28T11:07:21;1.88;;;1.25;;
48578;SDS011;34357;51.948;6.132;2023-02-28T11:09:51;4.10;;;1.40;;
48578;SDS011;34357;51.948;6.132;2023-02-28T11:12:23;2.75;;;1.20;;
48578;SDS011;34357;51.948;6.132;2023-02-28T11:14:52;3.50;;;1.60;;
48578;SDS011;34357;51.948;6.132;2023-02-28T11:17:22;4.43;;;1.60;;
48578;SDS011;34357;51.948;6.132;2023-02-28T11:19:53;2.28;;;1.20;;
48578;SDS011;34357;51.948;6.132;2023-02-28T11:22:24;1.83;;;1.23;;
48578;SDS011;34357;51.948;6.132;2023-02-28T11:24:59;2.83;;;1.30;;
48578;SDS011;34357;51.948;6.132;2023-02-28T11:30:00;3.05;;;1.30;;
48578;SDS011;34357;51.948;6.132;2023-02-28T11:32:26;2.08;;;1.20;;
48578;SDS011;34357;51.948;6.132;2023-02-28T11:35:04;3.60;;;1.45;;
48578;SDS011;34357;51.948;6.132;2023-02-28T11:37:42;1.33;;;1.10;;
48578;SDS011;34357;51.948;6.132;2023-02-28T11:40:18;1.65;;;1.55;;
48578;SDS011;34357;51.948;6.132;2023-02-28T11:48:01;3.35;;;1.90;;
48578;SDS011;34357;51.948;6.132;2023-02-28T11:53:35;4.63;;;2.28;;
48578;SDS011;34357;51.948;6.132;2023-02-28T11:59:15;2.72;;;1.38;;
48578;SDS011;34357;51.948;6.132;2023-02-28T12:04:32;1.98;;;1.27;;
48578;SDS011;34357;51.948;6.132;2023-02-28T12:07:20;2.97;;;1.63;;
48578;SDS011;34357;51.948;6.132;2023-02-28T12:10:20;2.80;;;1.90;;
48578;SDS011;34357;51.948;6.132;2023-02-28T12:15:35;3.22;;;1.92;;
48578;SDS011;34357;51.948;6.132;2023-02-28T12:20:43;2.55;;;1.85;;
48578;SDS011;34357;51.948;6.132;2023-02-28T12:29:26;2.38;;;1.77;;
48578;SDS011;34357;51.948;6.132;2023-02-28T12:31:56;3.13;;;1.73;;
48578;SDS011;34357;51.948;6.132;2023-02-28T12:34:38;2.22;;;1.50;;
48578;SDS011;34357;51.948;6.132;2023-02-28T12:37:10;3.13;;;1.40;;
48578;SDS011;34357;51.948;6.132;2023-02-28T12:39:45;3.78;;;1.92;;
48578;SDS011;34357;51.948;6.132;2023-02-28T12:42:19;3.15;;;1.60;;
48578;SDS011;34357;51.948;6.132;2023-02-28T12:45:01;4.15;;;1.30;;
48578;SDS011;34357;51.948;6.132;2023-02-28T12:47:30;2.08;;;1.30;;
48578;SDS011;34357;51.948;6.132;2023-02-28T12:58:30;1.55;;;1.00;;
48578;SDS011;34357;51.948;6.132;2023-02-28T13:04:27;3.17;;;1.10;;
48578;SDS011;34357;51.948;6.132;2023-02-28T13:09:34;2.67;;;0.80;;
48578;SDS011;34357;51.948;6.132;2023-02-28T13:12:09;3.58;;;1.50;;
48578;SDS011;34357;51.948;6.132;2023-02-28T13:14:39;1.80;;;1.10;;
48578;SDS011;34357;51.948;6.132;2023-02-28T13:19:56;2.55;;;1.48;;
48578;SDS011;34357;51.948;6.132;2023-02-28T13:28:02;2.58;;;1.10;;
48578;SDS011;34357;51.948;6.132;2023-02-28T13:36:30;3.22;;;1.10;;
48578;SDS011;34357;51.948;6.132;2023-02-28T13:38:57;2.05;;;1.30;;
48578;SDS011;34357;51.948;6.132;2023-02-28T14:06:59;6.47;;;3.55;;
48578;SDS011;34357;51.948;6.132;2023-02-28T14:15:04;4.07;;;1.50;;
48578;SDS011;34357;51.948;6.132;2023-02-28T14:17:51;2.90;;;1.77;;
48578;SDS011;34357;51.948;6.132;2023-02-28T14:20:19;3.03;;;1.80;;
48578;SDS011;34357;51.948;6.132;2023-02-28T14:22:50;3.92;;;2.10;;
48578;SDS011;34357;51.948;6.132;2023-02-28T14:31:50;4.72;;;2.95;;
48578;SDS011;34357;51.948;6.132;2023-02-28T14:36:36;3.28;;;1.90;;
48578;SDS011;34357;51.948;6.132;2023-02-28T14:39:18;3.05;;;1.35;;
48578;SDS011;34357;51.948;6.132;2023-02-28T14:41:51;3.85;;;1.77;;
48578;SDS011;34357;51.948;6.132;2023-02-28T14:46:54;3.78;;;1.40;;
48578;SDS011;34357;51.948;6.132;2023-02-28T14:49:32;2.17;;;1.30;;
48578;SDS011;34357;51.948;6.132;2023-02-28T14:52:23;5.38;;;1.80;;
48578;SDS011;34357;51.948;6.132;2023-02-28T14:55:36;2.70;;;1.67;;
48578;SDS011;34357;51.948;6.132;2023-02-28T14:57:55;3.78;;;1.80;;
48578;SDS011;34357;51.948;6.132;2023-02-28T15:00:29;2.50;;;1.70;;
48578;SDS011;34357;51.948;6.132;2023-02-28T15:02:59;6.03;;;2.22;;
48578;SDS011;34357;51.948;6.132;2023-02-28T15:05:36;4.80;;;1.80;;
48578;SDS011;34357;51.948;6.132;2023-02-28T15:08:06;4.13;;;2.70;;
48578;SDS011;34357;51.948;6.132;2023-02-28T15:10:40;2.38;;;1.75;;
48578;SDS011;34357;51.948;6.132;2023-02-28T15:13:16;3.67;;;1.60;;
48578;SDS011;34357;51.948;6.132;2023-02-28T15:21:02;2.03;;;1.83;;
48578;SDS011;34357;51.948;6.132;2023-02-28T15:23:31;3.67;;;1.63;;
48578;SDS011;34357;51.948;6.132;2023-02-28T15:25:59;1.98;;;1.63;;
48578;SDS011;34357;51.948;6.132;2023-02-28T15:28:25;2.95;;;1.95;;
48578;SDS011;34357;51.948;6.132;2023-02-28T15:30:59;2.83;;;1.83;;
48578;SDS011;34357;51.948;6.132;2023-02-28T15:33:27;5.28;;;1.85;;
48578;SDS011;34357;51.948;6.132;2023-02-28T15:36:06;6.55;;;1.85;;
48578;SDS011;34357;51.948;6.132;2023-02-28T15:38:45;4.38;;;2.30;;
48578;SDS011;34357;51.948;6.132;2023-02-28T15:41:26;15.63;;;7.30;;
48578;SDS011;34357;51.948;6.132;2023-02-28T15:44:13;19.50;;;10.02;;
48578;SDS011;34357;51.948;6.132;2023-02-28T15:46:53;17.67;;;9.35;;
48578;SDS011;34357;51.948;6.132;2023-02-28T15:49:24;12.93;;;6.85;;
48578;SDS011;34357;51.948;6.132;2023-02-28T15:51:51;9.73;;;5.55;;
48578;SDS011;34357;51.948;6.132;2023-02-28T15:54:24;6.28;;;3.67;;
48578;SDS011;34357;51.948;6.132;2023-02-28T15:56:57;3.33;;;2.00;;
48578;SDS011;34357;51.948;6.132;2023-02-28T15:59:29;3.50;;;2.25;;
48578;SDS011;34357;51.948;6.132;2023-02-28T16:02:29;2.60;;;1.90;;
48578;SDS011;34357;51.948;6.132;2023-02-28T16:04:56;3.80;;;1.92;;
48578;SDS011;34357;51.948;6.132;2023-02-28T16:07:23;4.88;;;1.92;;
48578;SDS011;34357;51.948;6.132;2023-02-28T16:09:50;2.67;;;2.05;;
48578;SDS011;34357;51.948;6.132;2023-02-28T16:12:16;3.92;;;2.10;;
48578;SDS011;34357;51.948;6.132;2023-02-28T16:14:42;3.63;;;1.90;;
48578;SDS011;34357;51.948;6.132;2023-02-28T16:17:19;3.72;;;1.92;;
48578;SDS011;34357;51.948;6.132;2023-02-28T16:19:46;3.85;;;1.88;;
48578;SDS011;34357;51.948;6.132;2023-02-28T16:22:12;5.43;;;2.70;;
48578;SDS011;34357;51.948;6.132;2023-02-28T16:24:38;4.65;;;3.20;;
48578;SDS011;34357;51.948;6.132;2023-02-28T16:27:05;6.63;;;3.60;;
48578;SDS011;34357;51.948;6.132;2023-02-28T16:29:32;5.88;;;3.22;;
48578;SDS011;34357;51.948;6.132;2023-02-28T16:32:01;3.78;;;2.22;;
48578;SDS011;34357;51.948;6.132;2023-02-28T16:34:30;4.82;;;2.30;;
48578;SDS011;34357;51.948;6.132;2023-02-28T16:36:56;3.72;;;2.45;;
48578;SDS011;34357;51.948;6.132;2023-02-28T16:39:23;4.22;;;2.35;;
48578;SDS011;34357;51.948;6.132;2023-02-28T16:41:49;3.83;;;2.40;;
48578;SDS011;34357;51.948;6.132;2023-02-28T16:46:51;3.65;;;2.28;;
48578;SDS011;34357;51.948;6.132;2023-02-28T16:49:17;4.97;;;2.60;;
48578;SDS011;34357;51.948;6.132;2023-02-28T16:51:42;10.50;;;4.65;;
48578;SDS011;34357;51.948;6.132;2023-02-28T16:54:08;6.25;;;3.85;;
48578;SDS011;34357;51.948;6.132;2023-02-28T16:56:34;5.68;;;4.07;;
48578;SDS011;34357;51.948;6.132;2023-02-28T16:59:00;2.92;;;2.38;;
48578;SDS011;34357;51.948;6.132;2023-02-28T17:01:27;7.90;;;3.40;;
48578;SDS011;34357;51.948;6.132;2023-02-28T17:03:53;5.35;;;2.58;;
48578;SDS011;34357;51.948;6.132;2023-02-28T17:06:20;4.38;;;2.40;;
48578;SDS011;34357;51.948;6.132;2023-02-28T17:08:48;5.95;;;2.92;;
48578;SDS011;34357;51.948;6.132;2023-02-28T17:11:15;4.65;;;3.17;;
48578;SDS011;34357;51.948;6.132;2023-02-28T17:13:41;10.57;;;5.03;;
48578;SDS011;34357;51.948;6.132;2023-02-28T17:19:05;12.25;;;5.80;;
48578;SDS011;34357;51.948;6.132;2023-02-28T17:21:32;10.60;;;5.85;;
48578;SDS011;34357;51.948;6.132;2023-02-28T17:23:59;12.27;;;5.72;;
48578;SDS011;34357;51.948;6.132;2023-02-28T17:26:25;11.65;;;5.53;;
48578;SDS011;34357;51.948;6.132;2023-02-28T17:28:53;10.27;;;5.63;;
48578;SDS011;34357;51.948;6.132;2023-02-28T17:31:21;11.57;;;5.18;;
48578;SDS011;34357;51.948;6.132;2023-02-28T17:33:50;11.40;;;5.15;;
48578;SDS011;34357;51.948;6.132;2023-02-28T17:36:22;12.98;;;6.45;;
48578;SDS011;34357;51.948;6.132;2023-02-28T17:38:50;10.48;;;5.88;;
48578;SDS011;34357;51.948;6.132;2023-02-28T17:41:18;20.15;;;7.18;;
48578;SDS011;34357;51.948;6.132;2023-02-28T17:43:43;18.00;;;9.32;;
48578;SDS011;34357;51.948;6.132;2023-02-28T17:46:17;27.23;;;13.27;;